createdAt,value
2019-05-28T00:03:35.622Z,16.90
2019-05-28T00:08:40.268Z,18.03
2019-05-28T00:13:45.007Z,18.07
2019-05-28T00:18:49.750Z,18.23
2019-05-28T00:23:54.498Z,14.93
2019-05-28T00:28:59.342Z,15.07
2019-05-28T00:34:04.086Z,13.13
2019-05-28T00:39:10.262Z,15.27
2019-05-28T00:44:15.110Z,15.67
2019-05-28T00:49:20.688Z,14.67
2019-05-28T00:54:26.545Z,17.90
2019-05-28T00:59:31.176Z,17.33
2019-05-28T01:04:35.824Z,15.87
2019-05-28T01:09:40.570Z,14.87
2019-05-28T01:14:45.314Z,17.53
2019-05-28T01:19:50.055Z,17.53
2019-05-28T01:24:54.606Z,18.30
2019-05-28T01:29:59.240Z,18.00
2019-05-28T01:35:04.939Z,16.03
2019-05-28T01:40:09.853Z,16.23
2019-05-28T01:45:15.453Z,14.20
2019-05-28T01:50:20.153Z,14.30
2019-05-28T01:55:24.903Z,13.87
2019-05-28T02:00:29.643Z,13.40
2019-05-28T02:05:34.387Z,13.33
2019-05-28T02:10:39.127Z,11.73
2019-05-28T02:15:45.407Z,12.90
2019-05-28T02:20:50.151Z,13.30
2019-05-28T02:25:54.798Z,11.97
2019-05-28T02:30:59.540Z,12.73
2019-05-28T02:36:04.163Z,12.43
2019-05-28T02:41:09.026Z,13.30
2019-05-28T02:46:13.607Z,12.40
2019-05-28T02:51:18.198Z,13.43
2019-05-28T02:56:22.843Z,12.37
2019-05-28T03:01:42.788Z,12.00
2019-05-28T03:06:34.788Z,12.00
2019-05-28T03:11:39.531Z,13.00
2019-05-28T03:16:44.275Z,12.37
2019-05-28T03:21:49.019Z,12.90
2019-05-28T03:26:53.816Z,12.90
2019-05-28T03:32:08.438Z,12.90
2019-05-28T03:37:04.793Z,11.57
2019-05-28T03:42:09.531Z,12.93
2019-05-28T03:47:14.235Z,12.43
2019-05-28T03:52:19.017Z,13.20
2019-05-28T03:57:24.210Z,12.90
2019-05-28T04:02:30.000Z,13.03
2019-05-28T04:07:34.995Z,13.10
2019-05-28T04:12:39.735Z,12.20
2019-05-28T04:17:45.957Z,12.40
2019-05-28T04:22:51.382Z,12.67
2019-05-28T04:27:56.024Z,12.90
2019-05-28T04:33:01.780Z,12.13
2019-05-28T04:38:06.519Z,12.57
2019-05-28T04:43:11.433Z,11.93
2019-05-28T04:48:17.445Z,12.67
2019-05-28T04:53:22.087Z,12.80
2019-05-28T04:58:26.828Z,12.90
2019-05-28T05:03:31.634Z,12.60
2019-05-28T05:08:37.547Z,14.40
2019-05-28T05:13:42.287Z,24.60
2019-05-28T05:18:47.031Z,22.40
2019-05-28T05:23:51.666Z,15.40
2019-05-28T05:28:56.313Z,13.83
2019-05-28T05:34:01.056Z,13.00
2019-05-28T05:39:08.024Z,12.43
2019-05-28T05:44:12.797Z,12.40
2019-05-28T05:49:17.542Z,11.37
2019-05-28T05:54:22.288Z,10.87
2019-05-28T05:59:27.032Z,9.87
2019-05-28T06:04:33.446Z,10.27
2019-05-28T06:09:38.159Z,9.27
2019-05-28T06:14:42.922Z,9.47
2019-05-28T06:19:48.515Z,15.13
2019-05-28T06:24:53.207Z,9.63
2019-05-28T06:29:57.943Z,10.63
2019-05-28T06:35:02.696Z,9.73
2019-05-28T06:40:08.352Z,8.70
2019-05-28T06:45:13.414Z,8.27
2019-05-28T06:50:18.061Z,8.33
2019-05-28T06:55:22.796Z,7.83
2019-05-28T07:00:27.547Z,9.27
2019-05-28T07:05:32.401Z,7.70
2019-05-28T07:10:37.058Z,7.90
2019-05-28T07:15:41.775Z,7.57
2019-05-28T07:20:46.581Z,7.37
2019-05-28T07:25:51.364Z,7.13
2019-05-28T07:30:55.916Z,7.13
2019-05-28T07:36:00.649Z,6.33
2019-05-28T07:41:05.230Z,6.77
2019-05-28T07:46:10.854Z,6.27
2019-05-28T07:51:15.488Z,6.43
2019-05-28T07:56:20.136Z,5.83
2019-05-28T08:01:24.884Z,6.33
2019-05-28T08:06:29.729Z,6.10
2019-05-28T08:11:35.391Z,5.70
2019-05-28T08:16:51.890Z,5.27
2019-05-28T08:21:46.434Z,5.37
2019-05-28T08:26:51.162Z,5.00
2019-05-28T08:31:55.904Z,5.13
2019-05-28T08:37:05.998Z,5.00
2019-05-28T08:42:06.937Z,4.80
2019-05-28T08:47:11.678Z,4.73
2019-05-28T08:52:16.423Z,5.33
2019-05-28T08:57:21.163Z,4.63
2019-05-28T09:02:28.279Z,5.53
2019-05-28T09:07:32.079Z,4.80
2019-05-28T09:12:36.747Z,4.90
2019-05-28T09:17:41.331Z,5.47
2019-05-28T09:22:46.023Z,5.10
2019-05-28T09:27:50.766Z,4.80
2019-05-28T09:32:55.697Z,4.93
2019-05-28T09:38:02.338Z,4.70
2019-05-28T09:43:07.348Z,4.83
2019-05-28T09:48:12.279Z,4.77
2019-05-28T09:53:17.446Z,4.77
2019-05-28T09:58:22.197Z,4.50
2019-05-28T10:03:26.931Z,4.47
2019-05-28T10:08:32.237Z,4.83
2019-05-28T10:13:41.202Z,4.97
2019-05-28T10:18:44.513Z,4.20
2019-05-28T10:23:49.306Z,4.25
2019-05-28T10:28:53.903Z,4.70
2019-05-28T10:33:59.161Z,5.10
2019-05-28T10:39:06.885Z,5.07
2019-05-28T10:44:11.973Z,5.12
2019-05-28T10:49:17.067Z,4.35
2019-05-28T10:54:21.861Z,4.47
2019-05-28T10:59:26.761Z,4.53
2019-05-28T11:04:31.554Z,4.50
2019-05-28T11:09:38.242Z,4.03
2019-05-28T11:14:44.974Z,4.13
2019-05-28T11:19:50.138Z,4.87
2019-05-28T11:24:54.943Z,4.00
2019-05-28T11:29:59.629Z,3.90
2019-05-28T11:35:05.249Z,4.20
2019-05-28T11:40:11.237Z,4.30
2019-05-28T11:45:18.321Z,4.00
2019-05-28T11:50:23.682Z,4.05
2019-05-28T11:55:28.930Z,4.30
2019-05-28T12:00:34.523Z,4.53
2019-05-28T12:05:39.346Z,4.28
2019-05-28T12:10:45.423Z,4.10
2019-05-28T12:15:50.206Z,4.20
2019-05-28T12:20:55.848Z,4.90
2019-05-28T12:26:02.622Z,4.90
2019-05-28T12:31:08.066Z,4.80
2019-05-28T12:36:13.354Z,4.60
2019-05-28T12:41:18.465Z,4.95
2019-05-28T12:46:23.456Z,4.95
2019-05-28T12:51:28.389Z,34.48
2019-05-28T12:56:33.864Z,12.37
2019-05-28T13:01:39.150Z,4.80
2019-05-28T13:06:44.160Z,4.70
2019-05-28T13:11:50.759Z,4.37
2019-05-28T13:16:55.576Z,5.12
2019-05-28T13:22:00.410Z,4.85
2019-05-28T13:27:17.447Z,4.37
2019-05-28T13:32:12.448Z,4.60
2019-05-28T13:37:17.567Z,4.65
2019-05-28T13:42:22.673Z,3.95
2019-05-28T13:47:33.710Z,4.95
2019-05-28T13:52:35.809Z,4.80
2019-05-28T13:57:41.083Z,4.60
2019-05-28T14:02:46.938Z,4.95
2019-05-28T14:07:53.997Z,4.72
2019-05-28T14:12:59.502Z,5.12
2019-05-28T14:18:04.762Z,5.30
2019-05-28T14:23:09.578Z,5.27
2019-05-28T14:28:15.193Z,5.90
2019-05-28T14:33:20.318Z,5.87
2019-05-28T14:38:26.704Z,5.67
2019-05-28T14:43:32.403Z,7.00
2019-05-28T14:48:37.898Z,6.10
2019-05-28T14:53:43.148Z,6.63
2019-05-28T14:58:49.394Z,6.97
2019-05-28T15:03:54.559Z,6.93
2019-05-28T15:09:00.009Z,6.10
2019-05-28T15:14:06.418Z,7.47
2019-05-28T15:19:11.593Z,6.57
2019-05-28T15:24:16.426Z,6.27
2019-05-28T15:29:21.501Z,6.33
2019-05-28T15:34:26.477Z,6.77
2019-05-28T15:39:39.680Z,7.47
2019-05-28T15:44:39.409Z,7.63
2019-05-28T15:49:44.347Z,7.43
2019-05-28T15:54:49.298Z,6.80
2019-05-28T15:59:54.543Z,5.87
2019-05-28T16:05:01.768Z,6.00
2019-05-28T16:10:11.490Z,6.57
2019-05-28T16:15:17.086Z,6.40
2019-05-28T16:20:22.564Z,9.17
2019-05-28T16:25:27.327Z,8.37
2019-05-28T16:30:32.169Z,9.00
2019-05-28T16:35:37.090Z,8.73
2019-05-28T16:40:45.409Z,7.70
2019-05-28T16:45:52.037Z,8.03
2019-05-28T16:50:57.262Z,7.73
2019-05-28T16:56:02.698Z,8.93
2019-05-28T17:01:21.741Z,7.80
2019-05-28T17:06:15.874Z,8.23
2019-05-28T17:11:20.959Z,8.10
2019-05-28T17:16:26.176Z,9.10
2019-05-28T17:21:32.670Z,9.43
2019-05-28T17:26:38.160Z,9.10
2019-05-28T17:31:43.426Z,9.07
2019-05-28T17:36:50.165Z,8.87
2019-05-28T17:41:57.186Z,9.07
2019-05-28T17:47:03.519Z,9.43
2019-05-28T17:52:10.955Z,9.43
2019-05-28T17:57:16.046Z,11.53
2019-05-28T18:02:21.431Z,11.60
2019-05-28T18:07:26.229Z,8.87
2019-05-28T18:12:31.582Z,9.00
2019-05-28T18:17:37.564Z,8.07
2019-05-28T18:22:42.353Z,9.37
2019-05-28T18:27:50.383Z,8.33
2019-05-28T18:32:55.999Z,9.57
2019-05-28T18:38:03.663Z,10.37
2019-05-28T18:43:08.610Z,9.13
2019-05-28T18:48:14.113Z,9.27
2019-05-28T18:53:19.272Z,9.70
2019-05-28T18:58:25.085Z,9.83
2019-05-28T19:03:30.316Z,9.37
2019-05-28T19:08:35.311Z,11.10
2019-05-28T19:13:41.349Z,10.83
2019-05-28T19:18:46.621Z,10.87
2019-05-28T19:23:51.741Z,11.10
2019-05-28T19:28:56.932Z,10.97
2019-05-28T19:34:02.231Z,10.73
2019-05-28T19:39:07.875Z,11.03
2019-05-28T19:44:13.005Z,10.53
2019-05-28T19:49:18.034Z,10.60
2019-05-28T19:54:22.954Z,11.17
2019-05-28T19:59:29.437Z,11.13
2019-05-28T20:04:34.721Z,11.43
2019-05-28T20:09:40.709Z,10.73
2019-05-28T20:14:46.548Z,11.10
2019-05-28T20:19:52.972Z,11.10
2019-05-28T20:24:58.774Z,11.57
2019-05-28T20:30:05.535Z,11.10
2019-05-28T20:35:11.325Z,10.80
2019-05-28T20:40:17.175Z,10.43
2019-05-28T20:45:24.258Z,10.97
2019-05-28T20:50:30.057Z,11.10
2019-05-28T20:55:35.426Z,10.53
2019-05-28T21:00:40.739Z,9.90
2019-05-28T21:05:46.208Z,10.30
2019-05-28T21:10:52.582Z,9.83
2019-05-28T21:15:59.343Z,10.33
2019-05-28T21:21:04.627Z,9.30
2019-05-28T21:26:09.566Z,8.93
2019-05-28T21:31:14.493Z,8.73
2019-05-28T21:36:19.650Z,8.50
2019-05-28T21:41:24.493Z,7.93
2019-05-28T21:46:29.233Z,9.20
2019-05-28T21:51:34.019Z,8.93
2019-05-28T21:56:38.612Z,9.27
2019-05-28T22:01:43.256Z,10.10
2019-05-28T22:06:47.999Z,9.50
2019-05-28T22:11:52.647Z,9.77
2019-05-28T22:16:59.402Z,9.23
2019-05-28T22:22:04.669Z,9.07
2019-05-28T22:27:09.640Z,9.67
2019-05-28T22:32:14.381Z,9.20
2019-05-28T22:37:19.126Z,9.90
2019-05-28T22:42:23.758Z,9.53
2019-05-28T22:47:29.430Z,9.63
2019-05-28T22:52:34.176Z,9.63
2019-05-28T22:57:38.815Z,8.80
2019-05-28T23:02:43.376Z,8.37
2019-05-28T23:07:48.102Z,8.20
2019-05-28T23:12:52.845Z,8.37
2019-05-28T23:17:57.480Z,7.93
2019-05-28T23:23:03.239Z,8.40
2019-05-28T23:28:08.204Z,8.00
2019-05-28T23:33:14.243Z,8.13
2019-05-28T23:38:19.123Z,7.67
2019-05-28T23:43:23.865Z,7.93
2019-05-28T23:48:28.607Z,7.93
2019-05-28T23:53:33.356Z,9.30
2019-05-28T23:58:38.203Z,7.93
